sensor_id;sensor_type;location;lat;lon;timestamp;temperature;humidity
46055;DHT22;31788;6.954;-71.872;2022-08-05T00:01:16;29.10;99.90
46055;DHT22;31788;6.954;-71.872;2022-08-05T00:03:43;29.00;99.90
46055;DHT22;31788;6.954;-71.872;2022-08-05T00:06:10;29.00;99.90
46055;DHT22;31788;6.954;-71.872;2022-08-05T00:08:38;29.00;99.90
46055;DHT22;31788;6.954;-71.872;2022-08-05T00:11:07;29.00;99.90
46055;DHT22;31788;6.954;-71.872;2022-08-05T00:13:36;29.00;99.90
46055;DHT22;31788;6.954;-71.872;2022-08-05T00:16:04;28.90;99.90
46055;DHT22;31788;6.954;-71.872;2022-08-05T00:18:31;28.90;99.90
46055;DHT22;31788;6.954;-71.872;2022-08-05T00:20:57;29.00;99.90
46055;DHT22;31788;6.954;-71.872;2022-08-05T00:23:24;28.90;99.90
46055;DHT22;31788;6.954;-71.872;2022-08-05T00:25:51;28.90;99.90
46055;DHT22;31788;6.954;-71.872;2022-08-05T00:28:17;28.90;99.90
46055;DHT22;31788;6.954;-71.872;2022-08-05T00:30:44;28.90;99.90
46055;DHT22;31788;6.954;-71.872;2022-08-05T00:33:14;28.90;99.90
46055;DHT22;31788;6.954;-71.872;2022-08-05T00:35:41;28.90;99.90
46055;DHT22;31788;6.954;-71.872;2022-08-05T00:38:07;28.80;99.90
46055;DHT22;31788;6.954;-71.872;2022-08-05T00:40:46;28.80;99.90
46055;DHT22;31788;6.954;-71.872;2022-08-05T00:43:13;28.80;99.90
46055;DHT22;31788;6.954;-71.872;2022-08-05T00:45:43;28.70;99.90
46055;DHT22;31788;6.954;-71.872;2022-08-05T00:48:14;28.70;99.90
46055;DHT22;31788;6.954;-71.872;2022-08-05T00:50:43;28.70;99.90
46055;DHT22;31788;6.954;-71.872;2022-08-05T00:53:10;28.60;99.90
46055;DHT22;31788;6.954;-71.872;2022-08-05T00:55:37;28.60;99.90
46055;DHT22;31788;6.954;-71.872;2022-08-05T00:58:04;28.60;99.90
46055;DHT22;31788;6.954;-71.872;2022-08-05T01:00:31;28.60;99.90
46055;DHT22;31788;6.954;-71.872;2022-08-05T01:02:58;28.60;99.90
46055;DHT22;31788;6.954;-71.872;2022-08-05T01:05:25;28.60;99.90
46055;DHT22;31788;6.954;-71.872;2022-08-05T01:07:52;28.50;99.90
46055;DHT22;31788;6.954;-71.872;2022-08-05T01:10:22;28.50;99.90
46055;DHT22;31788;6.954;-71.872;2022-08-05T01:12:56;28.50;99.90
46055;DHT22;31788;6.954;-71.872;2022-08-05T01:15:31;28.50;99.90
46055;DHT22;31788;6.954;-71.872;2022-08-05T01:18:11;28.50;99.90
46055;DHT22;31788;6.954;-71.872;2022-08-05T01:20:59;28.40;99.90
46055;DHT22;31788;6.954;-71.872;2022-08-05T01:26:43;28.40;99.90
46055;DHT22;31788;6.954;-71.872;2022-08-05T01:29:24;28.50;99.90
46055;DHT22;31788;6.954;-71.872;2022-08-05T01:31:59;28.40;99.90
46055;DHT22;31788;6.954;-71.872;2022-08-05T01:34:53;28.40;99.90
46055;DHT22;31788;6.954;-71.872;2022-08-05T01:37:49;28.40;99.90
46055;DHT22;31788;6.954;-71.872;2022-08-05T01:40:18;28.40;99.90
46055;DHT22;31788;6.954;-71.872;2022-08-05T01:42:46;28.50;99.90
46055;DHT22;31788;6.954;-71.872;2022-08-05T01:45:14;28.40;99.90
46055;DHT22;31788;6.954;-71.872;2022-08-05T01:47:43;28.40;99.90
46055;DHT22;31788;6.954;-71.872;2022-08-05T01:50:31;28.30;99.90
46055;DHT22;31788;6.954;-71.872;2022-08-05T01:53:02;28.30;99.90
46055;DHT22;31788;6.954;-71.872;2022-08-05T01:55:32;28.20;99.90
46055;DHT22;31788;6.954;-71.872;2022-08-05T01:57:59;28.20;99.90
46055;DHT22;31788;6.954;-71.872;2022-08-05T02:00:28;28.20;99.90
46055;DHT22;31788;6.954;-71.872;2022-08-05T02:02:59;28.20;99.90
46055;DHT22;31788;6.954;-71.872;2022-08-05T02:05:32;28.10;99.90
46055;DHT22;31788;6.954;-71.872;2022-08-05T02:08:00;28.20;99.90
46055;DHT22;31788;6.954;-71.872;2022-08-05T02:10:29;28.20;99.90
46055;DHT22;31788;6.954;-71.872;2022-08-05T02:13:19;28.10;99.90
46055;DHT22;31788;6.954;-71.872;2022-08-05T02:18:46;28.10;99.90
46055;DHT22;31788;6.954;-71.872;2022-08-05T02:21:17;28.10;99.90
46055;DHT22;31788;6.954;-71.872;2022-08-05T02:23:49;28.10;99.90
46055;DHT22;31788;6.954;-71.872;2022-08-05T02:26:27;28.10;99.90
46055;DHT22;31788;6.954;-71.872;2022-08-05T02:28:59;28.10;99.90
46055;DHT22;31788;6.954;-71.872;2022-08-05T02:31:31;28.10;99.90
46055;DHT22;31788;6.954;-71.872;2022-08-05T02:34:02;28.10;99.90
46055;DHT22;31788;6.954;-71.872;2022-08-05T02:36:32;28.10;99.90
46055;DHT22;31788;6.954;-71.872;2022-08-05T02:39:02;28.10;99.90
46055;DHT22;31788;6.954;-71.872;2022-08-05T02:41:31;28.10;99.90
46055;DHT22;31788;6.954;-71.872;2022-08-05T02:43:59;28.10;99.90
46055;DHT22;31788;6.954;-71.872;2022-08-05T02:46:28;28.00;99.90
46055;DHT22;31788;6.954;-71.872;2022-08-05T02:48:56;28.00;99.90
46055;DHT22;31788;6.954;-71.872;2022-08-05T02:51:24;28.00;99.90
46055;DHT22;31788;6.954;-71.872;2022-08-05T02:53:52;28.00;99.90
46055;DHT22;31788;6.954;-71.872;2022-08-05T02:56:20;28.00;99.90
46055;DHT22;31788;6.954;-71.872;2022-08-05T02:58:47;27.90;99.90
46055;DHT22;31788;6.954;-71.872;2022-08-05T03:01:19;27.90;99.90
46055;DHT22;31788;6.954;-71.872;2022-08-05T03:04:09;27.90;99.90
46055;DHT22;31788;6.954;-71.872;2022-08-05T03:06:37;27.90;99.90
46055;DHT22;31788;6.954;-71.872;2022-08-05T03:09:04;27.90;99.90
46055;DHT22;31788;6.954;-71.872;2022-08-05T03:11:31;27.90;99.90
46055;DHT22;31788;6.954;-71.872;2022-08-05T03:13:58;27.90;99.90
46055;DHT22;31788;6.954;-71.872;2022-08-05T03:16:24;27.90;99.90
46055;DHT22;31788;6.954;-71.872;2022-08-05T03:18:51;27.90;99.90
46055;DHT22;31788;6.954;-71.872;2022-08-05T03:21:18;27.90;99.90
46055;DHT22;31788;6.954;-71.872;2022-08-05T03:23:45;27.80;99.90
46055;DHT22;31788;6.954;-71.872;2022-08-05T03:26:12;27.80;99.90
46055;DHT22;31788;6.954;-71.872;2022-08-05T03:28:39;27.80;99.90
46055;DHT22;31788;6.954;-71.872;2022-08-05T03:31:06;27.80;99.90
46055;DHT22;31788;6.954;-71.872;2022-08-05T03:33:33;27.80;99.90
46055;DHT22;31788;6.954;-71.872;2022-08-05T03:36:00;27.70;99.90
46055;DHT22;31788;6.954;-71.872;2022-08-05T03:38:27;27.70;99.90
46055;DHT22;31788;6.954;-71.872;2022-08-05T03:40:54;27.80;99.90
46055;DHT22;31788;6.954;-71.872;2022-08-05T03:43:21;27.80;99.90
46055;DHT22;31788;6.954;-71.872;2022-08-05T03:45:51;27.80;99.90
46055;DHT22;31788;6.954;-71.872;2022-08-05T03:48:21;27.70;99.90
46055;DHT22;31788;6.954;-71.872;2022-08-05T03:51:15;27.70;99.90
46055;DHT22;31788;6.954;-71.872;2022-08-05T03:53:54;27.70;99.90
46055;DHT22;31788;6.954;-71.872;2022-08-05T03:56:32;27.80;99.90
46055;DHT22;31788;6.954;-71.872;2022-08-05T03:59:05;27.70;99.90
46055;DHT22;31788;6.954;-71.872;2022-08-05T04:01:36;27.80;99.90
46055;DHT22;31788;6.954;-71.872;2022-08-05T04:04:07;27.80;99.90
46055;DHT22;31788;6.954;-71.872;2022-08-05T04:06:34;27.80;99.90
46055;DHT22;31788;6.954;-71.872;2022-08-05T04:09:02;27.80;99.90
46055;DHT22;31788;6.954;-71.872;2022-08-05T04:11:31;27.80;99.90
46055;DHT22;31788;6.954;-71.872;2022-08-05T04:13:58;27.80;99.90
46055;DHT22;31788;6.954;-71.872;2022-08-05T04:16:25;27.80;99.90
46055;DHT22;31788;6.954;-71.872;2022-08-05T04:18:53;27.80;99.90
46055;DHT22;31788;6.954;-71.872;2022-08-05T04:21:20;27.80;99.90
46055;DHT22;31788;6.954;-71.872;2022-08-05T04:23:46;27.80;99.90
46055;DHT22;31788;6.954;-71.872;2022-08-05T04:26:14;27.70;99.90
46055;DHT22;31788;6.954;-71.872;2022-08-05T04:28:41;27.80;99.90
46055;DHT22;31788;6.954;-71.872;2022-08-05T04:31:07;27.80;99.90
46055;DHT22;31788;6.954;-71.872;2022-08-05T04:33:34;27.80;99.90
46055;DHT22;31788;6.954;-71.872;2022-08-05T04:36:00;27.80;99.90
46055;DHT22;31788;6.954;-71.872;2022-08-05T04:38:27;27.80;99.90
46055;DHT22;31788;6.954;-71.872;2022-08-05T04:40:53;27.70;99.90
46055;DHT22;31788;6.954;-71.872;2022-08-05T04:43:20;27.60;99.90
46055;DHT22;31788;6.954;-71.872;2022-08-05T04:45:46;27.60;99.90
46055;DHT22;31788;6.954;-71.872;2022-08-05T04:48:14;27.60;99.90
46055;DHT22;31788;6.954;-71.872;2022-08-05T04:50:46;27.60;99.90
46055;DHT22;31788;6.954;-71.872;2022-08-05T04:53:15;27.60;99.90
46055;DHT22;31788;6.954;-71.872;2022-08-05T04:55:42;27.60;99.90
46055;DHT22;31788;6.954;-71.872;2022-08-05T04:58:12;27.50;99.90
46055;DHT22;31788;6.954;-71.872;2022-08-05T05:00:39;27.50;99.90
46055;DHT22;31788;6.954;-71.872;2022-08-05T05:03:07;27.50;99.90
46055;DHT22;31788;6.954;-71.872;2022-08-05T05:05:34;27.40;99.90
46055;DHT22;31788;6.954;-71.872;2022-08-05T05:08:08;27.40;99.90
46055;DHT22;31788;6.954;-71.872;2022-08-05T05:10:40;27.40;99.90
46055;DHT22;31788;6.954;-71.872;2022-08-05T05:13:09;27.40;99.90
46055;DHT22;31788;6.954;-71.872;2022-08-05T05:15:37;27.40;99.90
46055;DHT22;31788;6.954;-71.872;2022-08-05T05:18:04;27.30;99.90
46055;DHT22;31788;6.954;-71.872;2022-08-05T05:20:31;27.40;99.90
46055;DHT22;31788;6.954;-71.872;2022-08-05T05:22:59;27.40;99.90
46055;DHT22;31788;6.954;-71.872;2022-08-05T05:25:26;27.40;99.90
46055;DHT22;31788;6.954;-71.872;2022-08-05T05:27:53;27.40;99.90
46055;DHT22;31788;6.954;-71.872;2022-08-05T05:30:20;27.40;99.90
46055;DHT22;31788;6.954;-71.872;2022-08-05T05:32:47;27.40;99.90
46055;DHT22;31788;6.954;-71.872;2022-08-05T05:35:14;27.40;99.90
46055;DHT22;31788;6.954;-71.872;2022-08-05T05:37:55;27.40;99.90
46055;DHT22;31788;6.954;-71.872;2022-08-05T05:40:23;27.40;99.90
46055;DHT22;31788;6.954;-71.872;2022-08-05T05:42:50;27.40;99.90
46055;DHT22;31788;6.954;-71.872;2022-08-05T05:45:18;27.40;99.90
46055;DHT22;31788;6.954;-71.872;2022-08-05T05:47:45;27.40;99.90
46055;DHT22;31788;6.954;-71.872;2022-08-05T05:50:15;27.40;99.90
46055;DHT22;31788;6.954;-71.872;2022-08-05T05:52:43;27.40;99.90
46055;DHT22;31788;6.954;-71.872;2022-08-05T05:55:11;27.40;99.90
46055;DHT22;31788;6.954;-71.872;2022-08-05T05:57:40;27.50;99.90
46055;DHT22;31788;6.954;-71.872;2022-08-05T06:00:12;27.50;99.90
46055;DHT22;31788;6.954;-71.872;2022-08-05T06:02:39;27.50;99.90
46055;DHT22;31788;6.954;-71.872;2022-08-05T06:05:07;27.50;99.90
46055;DHT22;31788;6.954;-71.872;2022-08-05T06:07:34;27.50;99.90
46055;DHT22;31788;6.954;-71.872;2022-08-05T06:10:01;27.50;99.90
46055;DHT22;31788;6.954;-71.872;2022-08-05T06:12:27;27.50;99.90
46055;DHT22;31788;6.954;-71.872;2022-08-05T06:14:54;27.50;99.90
46055;DHT22;31788;6.954;-71.872;2022-08-05T06:17:21;27.50;99.90
46055;DHT22;31788;6.954;-71.872;2022-08-05T06:19:47;27.50;99.90
46055;DHT22;31788;6.954;-71.872;2022-08-05T06:22:22;27.60;99.90
46055;DHT22;31788;6.954;-71.872;2022-08-05T06:24:49;27.60;99.90
46055;DHT22;31788;6.954;-71.872;2022-08-05T06:27:16;27.50;99.90
46055;DHT22;31788;6.954;-71.872;2022-08-05T06:29:43;27.50;99.90
46055;DHT22;31788;6.954;-71.872;2022-08-05T06:32:10;27.50;99.90
46055;DHT22;31788;6.954;-71.872;2022-08-05T06:34:37;27.50;99.90
46055;DHT22;31788;6.954;-71.872;2022-08-05T06:37:04;27.50;99.90
46055;DHT22;31788;6.954;-71.872;2022-08-05T06:39:30;27.50;99.90
46055;DHT22;31788;6.954;-71.872;2022-08-05T06:41:58;27.50;99.90
46055;DHT22;31788;6.954;-71.872;2022-08-05T06:44:26;27.50;99.90
46055;DHT22;31788;6.954;-71.872;2022-08-05T06:46:54;27.50;99.90
46055;DHT22;31788;6.954;-71.872;2022-08-05T06:49:21;27.40;99.90
46055;DHT22;31788;6.954;-71.872;2022-08-05T06:51:47;27.50;99.90
46055;DHT22;31788;6.954;-71.872;2022-08-05T06:54:14;27.40;99.90
46055;DHT22;31788;6.954;-71.872;2022-08-05T06:56:41;27.40;99.90
46055;DHT22;31788;6.954;-71.872;2022-08-05T06:59:07;27.50;99.90
46055;DHT22;31788;6.954;-71.872;2022-08-05T07:01:34;27.50;99.90
46055;DHT22;31788;6.954;-71.872;2022-08-05T07:04:01;27.40;99.90
46055;DHT22;31788;6.954;-71.872;2022-08-05T07:06:28;27.40;99.90
46055;DHT22;31788;6.954;-71.872;2022-08-05T07:08:54;27.40;99.90
46055;DHT22;31788;6.954;-71.872;2022-08-05T07:11:21;27.30;99.90
46055;DHT22;31788;6.954;-71.872;2022-08-05T07:13:47;27.30;99.90
46055;DHT22;31788;6.954;-71.872;2022-08-05T07:16:32;27.30;99.90
46055;DHT22;31788;6.954;-71.872;2022-08-05T07:19:16;27.30;99.90
46055;DHT22;31788;6.954;-71.872;2022-08-05T07:21:44;27.40;99.90
46055;DHT22;31788;6.954;-71.872;2022-08-05T07:24:11;27.30;99.90
46055;DHT22;31788;6.954;-71.872;2022-08-05T07:26:38;27.30;99.90
46055;DHT22;31788;6.954;-71.872;2022-08-05T07:29:05;27.30;99.90
46055;DHT22;31788;6.954;-71.872;2022-08-05T07:31:32;27.30;99.90
46055;DHT22;31788;6.954;-71.872;2022-08-05T07:33:59;27.30;99.90
46055;DHT22;31788;6.954;-71.872;2022-08-05T07:36:26;27.30;99.90
46055;DHT22;31788;6.954;-71.872;2022-08-05T07:38:52;27.30;99.90
46055;DHT22;31788;6.954;-71.872;2022-08-05T07:41:21;27.30;99.90
46055;DHT22;31788;6.954;-71.872;2022-08-05T07:43:48;27.30;99.90
46055;DHT22;31788;6.954;-71.872;2022-08-05T07:46:15;27.20;99.90
46055;DHT22;31788;6.954;-71.872;2022-08-05T07:48:41;27.30;99.90
46055;DHT22;31788;6.954;-71.872;2022-08-05T07:51:08;27.20;99.90
46055;DHT22;31788;6.954;-71.872;2022-08-05T07:53:34;27.20;99.90
46055;DHT22;31788;6.954;-71.872;2022-08-05T07:56:03;27.20;99.90
46055;DHT22;31788;6.954;-71.872;2022-08-05T07:58:29;27.10;99.90
46055;DHT22;31788;6.954;-71.872;2022-08-05T08:00:56;27.10;99.90
46055;DHT22;31788;6.954;-71.872;2022-08-05T08:03:22;27.10;99.90
46055;DHT22;31788;6.954;-71.872;2022-08-05T08:05:49;27.10;99.90
46055;DHT22;31788;6.954;-71.872;2022-08-05T08:08:17;27.10;99.90
46055;DHT22;31788;6.954;-71.872;2022-08-05T08:10:44;27.00;99.90
46055;DHT22;31788;6.954;-71.872;2022-08-05T08:13:11;27.00;99.90
46055;DHT22;31788;6.954;-71.872;2022-08-05T08:15:37;27.00;99.90
46055;DHT22;31788;6.954;-71.872;2022-08-05T08:18:04;27.00;99.90
46055;DHT22;31788;6.954;-71.872;2022-08-05T08:20:31;27.00;99.90
46055;DHT22;31788;6.954;-71.872;2022-08-05T08:22:58;27.00;99.90
46055;DHT22;31788;6.954;-71.872;2022-08-05T08:25:26;26.90;99.90
46055;DHT22;31788;6.954;-71.872;2022-08-05T08:27:56;26.90;99.90
46055;DHT22;31788;6.954;-71.872;2022-08-05T08:30:24;26.90;99.90
46055;DHT22;31788;6.954;-71.872;2022-08-05T08:32:50;26.90;99.90
46055;DHT22;31788;6.954;-71.872;2022-08-05T08:35:17;26.90;99.90
46055;DHT22;31788;6.954;-71.872;2022-08-05T08:37:44;26.90;99.90
46055;DHT22;31788;6.954;-71.872;2022-08-05T08:40:11;26.90;99.90
46055;DHT22;31788;6.954;-71.872;2022-08-05T08:42:38;26.90;99.90
46055;DHT22;31788;6.954;-71.872;2022-08-05T08:45:06;26.80;99.90
46055;DHT22;31788;6.954;-71.872;2022-08-05T08:47:34;26.80;99.90
46055;DHT22;31788;6.954;-71.872;2022-08-05T08:50:03;26.80;99.90
46055;DHT22;31788;6.954;-71.872;2022-08-05T08:52:31;26.80;99.90
46055;DHT22;31788;6.954;-71.872;2022-08-05T08:54:58;26.80;99.90
46055;DHT22;31788;6.954;-71.872;2022-08-05T08:57:26;26.80;99.90
46055;DHT22;31788;6.954;-71.872;2022-08-05T08:59:53;26.80;99.90
46055;DHT22;31788;6.954;-71.872;2022-08-05T09:02:21;26.70;99.90
46055;DHT22;31788;6.954;-71.872;2022-08-05T09:04:49;26.80;99.90
46055;DHT22;31788;6.954;-71.872;2022-08-05T09:07:18;26.70;99.90
46055;DHT22;31788;6.954;-71.872;2022-08-05T09:09:45;26.70;99.90
46055;DHT22;31788;6.954;-71.872;2022-08-05T09:12:11;26.70;99.90
46055;DHT22;31788;6.954;-71.872;2022-08-05T09:14:38;26.70;99.90
46055;DHT22;31788;6.954;-71.872;2022-08-05T09:17:08;26.60;99.90
46055;DHT22;31788;6.954;-71.872;2022-08-05T09:19:36;26.70;99.90
46055;DHT22;31788;6.954;-71.872;2022-08-05T09:22:03;26.70;99.90
46055;DHT22;31788;6.954;-71.872;2022-08-05T09:24:29;26.70;99.90
46055;DHT22;31788;6.954;-71.872;2022-08-05T09:26:57;26.70;99.90
46055;DHT22;31788;6.954;-71.872;2022-08-05T09:29:43;26.70;99.90
46055;DHT22;31788;6.954;-71.872;2022-08-05T09:32:14;26.70;99.90
46055;DHT22;31788;6.954;-71.872;2022-08-05T09:34:54;26.60;99.90
46055;DHT22;31788;6.954;-71.872;2022-08-05T09:37:25;26.60;99.90
46055;DHT22;31788;6.954;-71.872;2022-08-05T09:39:52;26.50;99.90
46055;DHT22;31788;6.954;-71.872;2022-08-05T09:42:21;26.60;99.90
46055;DHT22;31788;6.954;-71.872;2022-08-05T09:44:50;26.50;99.90
46055;DHT22;31788;6.954;-71.872;2022-08-05T09:47:19;26.50;99.90
46055;DHT22;31788;6.954;-71.872;2022-08-05T09:49:51;26.60;99.90
46055;DHT22;31788;6.954;-71.872;2022-08-05T09:52:19;26.60;99.90
46055;DHT22;31788;6.954;-71.872;2022-08-05T09:55:07;26.50;99.90
46055;DHT22;31788;6.954;-71.872;2022-08-05T09:57:43;26.50;99.90
46055;DHT22;31788;6.954;-71.872;2022-08-05T10:00:19;26.50;99.90
46055;DHT22;31788;6.954;-71.872;2022-08-05T10:02:51;26.50;99.90
46055;DHT22;31788;6.954;-71.872;2022-08-05T10:05:23;26.60;99.90
46055;DHT22;31788;6.954;-71.872;2022-08-05T10:07:58;26.60;99.90
46055;DHT22;31788;6.954;-71.872;2022-08-05T10:10:27;26.60;99.90
46055;DHT22;31788;6.954;-71.872;2022-08-05T10:12:59;26.50;99.90
46055;DHT22;31788;6.954;-71.872;2022-08-05T10:15:34;26.60;99.90
46055;DHT22;31788;6.954;-71.872;2022-08-05T10:18:13;26.50;99.90
46055;DHT22;31788;6.954;-71.872;2022-08-05T10:20:51;26.50;99.90
46055;DHT22;31788;6.954;-71.872;2022-08-05T10:23:31;26.50;99.90
46055;DHT22;31788;6.954;-71.872;2022-08-05T10:26:03;26.50;99.90
46055;DHT22;31788;6.954;-71.872;2022-08-05T10:28:30;26.60;99.90
46055;DHT22;31788;6.954;-71.872;2022-08-05T10:30:58;26.50;99.90
46055;DHT22;31788;6.954;-71.872;2022-08-05T10:33:27;26.50;99.90
46055;DHT22;31788;6.954;-71.872;2022-08-05T10:35:55;26.50;99.90
46055;DHT22;31788;6.954;-71.872;2022-08-05T10:38:23;26.50;99.90
46055;DHT22;31788;6.954;-71.872;2022-08-05T10:43:56;26.50;99.90
46055;DHT22;31788;6.954;-71.872;2022-08-05T10:46:17;26.50;99.90
46055;DHT22;31788;6.954;-71.872;2022-08-05T10:48:45;26.40;99.90
46055;DHT22;31788;6.954;-71.872;2022-08-05T10:51:17;26.50;99.90
46055;DHT22;31788;6.954;-71.872;2022-08-05T10:56:22;26.40;99.90
46055;DHT22;31788;6.954;-71.872;2022-08-05T11:01:39;26.40;99.90
46055;DHT22;31788;6.954;-71.872;2022-08-05T11:04:11;26.40;99.90
46055;DHT22;31788;6.954;-71.872;2022-08-05T11:17:52;26.40;99.90
46055;DHT22;31788;6.954;-71.872;2022-08-05T11:20:46;26.40;99.90
46055;DHT22;31788;6.954;-71.872;2022-08-05T11:26:19;26.50;99.90
46055;DHT22;31788;6.954;-71.872;2022-08-05T11:28:51;26.50;99.90
46055;DHT22;31788;6.954;-71.872;2022-08-05T11:36:16;26.50;99.90
46055;DHT22;31788;6.954;-71.872;2022-08-05T11:41:24;26.50;99.90
46055;DHT22;31788;6.954;-71.872;2022-08-05T11:44:01;26.50;99.90
46055;DHT22;31788;6.954;-71.872;2022-08-05T11:46:29;26.60;99.90
46055;DHT22;31788;6.954;-71.872;2022-08-05T11:48:57;26.60;99.90
46055;DHT22;31788;6.954;-71.872;2022-08-05T11:51:27;26.60;99.90
46055;DHT22;31788;6.954;-71.872;2022-08-05T11:53:55;26.60;99.90
46055;DHT22;31788;6.954;-71.872;2022-08-05T11:56:22;26.60;99.90
46055;DHT22;31788;6.954;-71.872;2022-08-05T11:58:49;26.60;99.90
46055;DHT22;31788;6.954;-71.872;2022-08-05T12:01:19;26.70;99.90
46055;DHT22;31788;6.954;-71.872;2022-08-05T12:03:51;26.80;99.90
46055;DHT22;31788;6.954;-71.872;2022-08-05T12:06:25;26.80;99.90
46055;DHT22;31788;6.954;-71.872;2022-08-05T12:08:58;27.00;99.90
46055;DHT22;31788;6.954;-71.872;2022-08-05T12:11:29;27.00;99.90
46055;DHT22;31788;6.954;-71.872;2022-08-05T12:13:59;27.10;99.90
46055;DHT22;31788;6.954;-71.872;2022-08-05T12:16:33;27.20;99.90
46055;DHT22;31788;6.954;-71.872;2022-08-05T12:19:00;27.30;99.90
46055;DHT22;31788;6.954;-71.872;2022-08-05T12:21:32;27.50;99.90
46055;DHT22;31788;6.954;-71.872;2022-08-05T12:26:36;27.70;99.90
46055;DHT22;31788;6.954;-71.872;2022-08-05T12:29:22;27.70;99.90
46055;DHT22;31788;6.954;-71.872;2022-08-05T12:31:56;27.80;99.90
46055;DHT22;31788;6.954;-71.872;2022-08-05T12:34:28;27.80;99.90
46055;DHT22;31788;6.954;-71.872;2022-08-05T12:36:57;27.90;99.90
46055;DHT22;31788;6.954;-71.872;2022-08-05T12:39:25;27.90;99.90
46055;DHT22;31788;6.954;-71.872;2022-08-05T12:41:57;27.90;99.90
46055;DHT22;31788;6.954;-71.872;2022-08-05T12:44:26;28.00;99.90
46055;DHT22;31788;6.954;-71.872;2022-08-05T12:46:54;28.00;99.90
46055;DHT22;31788;6.954;-71.872;2022-08-05T12:49:21;28.00;99.90
46055;DHT22;31788;6.954;-71.872;2022-08-05T12:51:56;28.00;99.90
46055;DHT22;31788;6.954;-71.872;2022-08-05T12:54:30;28.10;99.90
46055;DHT22;31788;6.954;-71.872;2022-08-05T12:57:02;28.10;99.90
46055;DHT22;31788;6.954;-71.872;2022-08-05T12:59:31;28.10;99.90
46055;DHT22;31788;6.954;-71.872;2022-08-05T13:02:09;28.10;99.90
46055;DHT22;31788;6.954;-71.872;2022-08-05T13:04:38;28.10;99.90
46055;DHT22;31788;6.954;-71.872;2022-08-05T13:07:08;28.10;99.90
46055;DHT22;31788;6.954;-71.872;2022-08-05T13:09:40;28.20;99.90
46055;DHT22;31788;6.954;-71.872;2022-08-05T13:12:10;28.20;99.90
46055;DHT22;31788;6.954;-71.872;2022-08-05T13:14:46;28.30;99.90
46055;DHT22;31788;6.954;-71.872;2022-08-05T13:17:27;28.30;99.90
46055;DHT22;31788;6.954;-71.872;2022-08-05T13:20:03;28.40;99.90
46055;DHT22;31788;6.954;-71.872;2022-08-05T13:22:34;28.40;99.90
46055;DHT22;31788;6.954;-71.872;2022-08-05T13:25:04;28.40;99.90
46055;DHT22;31788;6.954;-71.872;2022-08-05T13:27:34;28.40;99.90
46055;DHT22;31788;6.954;-71.872;2022-08-05T13:30:01;28.40;99.90
46055;DHT22;31788;6.954;-71.872;2022-08-05T13:32:28;28.50;99.90
46055;DHT22;31788;6.954;-71.872;2022-08-05T13:34:55;28.40;99.90
46055;DHT22;31788;6.954;-71.872;2022-08-05T13:37:22;28.40;99.90
46055;DHT22;31788;6.954;-71.872;2022-08-05T13:39:50;28.50;99.90
46055;DHT22;31788;6.954;-71.872;2022-08-05T13:42:22;28.40;99.90
46055;DHT22;31788;6.954;-71.872;2022-08-05T13:44:53;28.40;99.90
46055;DHT22;31788;6.954;-71.872;2022-08-05T13:47:22;28.40;99.90
46055;DHT22;31788;6.954;-71.872;2022-08-05T13:49:49;28.40;99.90
46055;DHT22;31788;6.954;-71.872;2022-08-05T13:52:22;28.40;99.90
46055;DHT22;31788;6.954;-71.872;2022-08-05T13:54:49;28.40;99.90
46055;DHT22;31788;6.954;-71.872;2022-08-05T13:57:16;28.40;99.90
46055;DHT22;31788;6.954;-71.872;2022-08-05T13:59:43;28.40;99.90
46055;DHT22;31788;6.954;-71.872;2022-08-05T14:02:11;28.40;99.90
46055;DHT22;31788;6.954;-71.872;2022-08-05T14:04:43;28.30;99.90
46055;DHT22;31788;6.954;-71.872;2022-08-05T14:07:31;28.40;99.90
46055;DHT22;31788;6.954;-71.872;2022-08-05T14:09:58;28.40;99.90
46055;DHT22;31788;6.954;-71.872;2022-08-05T14:12:26;28.40;99.90
46055;DHT22;31788;6.954;-71.872;2022-08-05T14:14:53;28.40;99.90
46055;DHT22;31788;6.954;-71.872;2022-08-05T14:17:19;28.40;99.90
46055;DHT22;31788;6.954;-71.872;2022-08-05T14:19:48;28.30;99.90
46055;DHT22;31788;6.954;-71.872;2022-08-05T14:22:15;28.40;99.90
46055;DHT22;31788;6.954;-71.872;2022-08-05T14:24:41;28.40;99.90
46055;DHT22;31788;6.954;-71.872;2022-08-05T14:27:08;28.40;99.90
46055;DHT22;31788;6.954;-71.872;2022-08-05T14:29:35;28.40;99.90
46055;DHT22;31788;6.954;-71.872;2022-08-05T14:32:02;28.40;99.90
46055;DHT22;31788;6.954;-71.872;2022-08-05T14:34:28;28.30;99.90
46055;DHT22;31788;6.954;-71.872;2022-08-05T14:36:55;28.40;99.90
46055;DHT22;31788;6.954;-71.872;2022-08-05T14:39:22;28.40;99.90
46055;DHT22;31788;6.954;-71.872;2022-08-05T14:41:48;28.40;99.90
46055;DHT22;31788;6.954;-71.872;2022-08-05T14:44:15;28.40;99.90
46055;DHT22;31788;6.954;-71.872;2022-08-05T14:46:41;28.50;99.90
46055;DHT22;31788;6.954;-71.872;2022-08-05T14:49:09;28.40;99.90
46055;DHT22;31788;6.954;-71.872;2022-08-05T14:51:37;28.50;99.90
46055;DHT22;31788;6.954;-71.872;2022-08-05T14:54:05;28.50;99.90
46055;DHT22;31788;6.954;-71.872;2022-08-05T14:56:32;28.50;99.90
46055;DHT22;31788;6.954;-71.872;2022-08-05T14:58:59;28.50;99.90
46055;DHT22;31788;6.954;-71.872;2022-08-05T15:01:26;28.50;99.90
46055;DHT22;31788;6.954;-71.872;2022-08-05T15:03:53;28.50;99.90
46055;DHT22;31788;6.954;-71.872;2022-08-05T15:06:20;28.50;99.90
46055;DHT22;31788;6.954;-71.872;2022-08-05T15:08:46;28.60;99.90
46055;DHT22;31788;6.954;-71.872;2022-08-05T15:11:13;28.60;99.90
46055;DHT22;31788;6.954;-71.872;2022-08-05T15:13:40;28.60;99.90
46055;DHT22;31788;6.954;-71.872;2022-08-05T15:16:06;28.50;99.90
46055;DHT22;31788;6.954;-71.872;2022-08-05T15:18:33;28.60;99.90
46055;DHT22;31788;6.954;-71.872;2022-08-05T15:21:00;28.60;99.90
46055;DHT22;31788;6.954;-71.872;2022-08-05T15:23:28;28.60;99.90
46055;DHT22;31788;6.954;-71.872;2022-08-05T15:25:55;28.60;99.90
46055;DHT22;31788;6.954;-71.872;2022-08-05T15:28:22;28.60;99.90
46055;DHT22;31788;6.954;-71.872;2022-08-05T15:30:49;28.60;99.90
46055;DHT22;31788;6.954;-71.872;2022-08-05T15:33:15;28.70;99.90
46055;DHT22;31788;6.954;-71.872;2022-08-05T15:35:42;28.70;99.90
46055;DHT22;31788;6.954;-71.872;2022-08-05T15:38:08;28.70;99.90
46055;DHT22;31788;6.954;-71.872;2022-08-05T15:40:36;28.70;99.90
46055;DHT22;31788;6.954;-71.872;2022-08-05T15:43:03;28.70;99.90
46055;DHT22;31788;6.954;-71.872;2022-08-05T15:45:34;28.80;99.80
46055;DHT22;31788;6.954;-71.872;2022-08-05T15:48:01;28.80;99.90
46055;DHT22;31788;6.954;-71.872;2022-08-05T15:50:29;28.80;99.80
46055;DHT22;31788;6.954;-71.872;2022-08-05T15:52:56;28.80;99.90
46055;DHT22;31788;6.954;-71.872;2022-08-05T15:55:22;28.80;99.50
46055;DHT22;31788;6.954;-71.872;2022-08-05T15:57:49;28.80;99.50
46055;DHT22;31788;6.954;-71.872;2022-08-05T16:00:16;28.80;99.10
46055;DHT22;31788;6.954;-71.872;2022-08-05T16:02:43;28.90;99.10
46055;DHT22;31788;6.954;-71.872;2022-08-05T16:05:10;28.90;98.90
46055;DHT22;31788;6.954;-71.872;2022-08-05T16:07:37;28.90;99.00